CheckWX is a tool to help pilots better visualize weather data.  It is not intended as a substitute for an official pre-flight weather briefing.

07:24:36 UTC

K2DP METAR
Dare County Gunnery Range Airport
North Carolina, USA
Current

29 mins ago

K2DP 180656Z AUTO 23005KT 10SM CLR 24/23 A3004 RMK AO2 LTG DSNT S SLPNO T02370228 $
Observed
Jun-18 @ 06:56 UTC
Wind
  • 230° at 5 KTS
Visibility
10 SM
Flight Rules
VFR
Cloud Levels
  • Clear skies
Temperature
24°C / 75°F
Dewpoint
23°C / 73°F
Humidity
94%
Altimeter
30.04" Hg
Pressure
1017.32 hPa
Previous

1 hour ago

K2DP 180556Z AUTO 22005KT 10SM CLR 23/23 A3004 RMK AO2 SLPNO T02320227 10264 20231 58003 $
Observed
Jun-18 @ 05:56 UTC
Wind
  • 220° at 5 KTS
Visibility
10 SM
Flight Rules
VFR
Cloud Levels
  • Clear skies
Temperature
23°C / 73°F
Dewpoint
23°C / 73°F
Humidity
100%
Altimeter
30.04" Hg
Pressure
1017.32 hPa
Previous

2 hours ago

K2DP 180456Z AUTO 22008KT 10SM CLR 24/23 A3005 RMK AO2 SLPNO T02420231 403240221 $
Observed
Jun-18 @ 04:56 UTC
Wind
  • 220° at 8 KTS
Visibility
10 SM
Flight Rules
VFR
Cloud Levels
  • Clear skies
Temperature
24°C / 75°F
Dewpoint
23°C / 73°F
Humidity
94%
Altimeter
30.05" Hg
Pressure
1017.62 hPa